Time;durP1;ratioP1;P1;durP2;ratioP2;P2;SDS_P1;SDS_P2;PMS_P1;PMS_P2;Temp;Humidity;BMP_temperature;BMP_pressure;BME280_temperature;BME280_humidity;BME280_pressure;Samples;Min_cycle;Max_cycle;Signal;HPM_P1;HPM_P2
2021/11/09 00:00:41;;;;;;;;;21.50;18.00;;;;;21.91;47.70;101675.00;5043258;28;45462;-78
2021/11/09 00:03:11;;;;;;;;;23.50;20.00;;;;;21.94;48.05;101677.59;5040958;28;45396;-78
2021/11/09 00:05:46;;;;;;;;;21.50;19.75;;;;;21.93;48.12;101675.84;5060615;28;45270;-78
2021/11/09 00:08:21;;;;;;;;;20.00;17.00;;;;;21.92;48.22;101665.25;5044645;28;45414;-78
2021/11/09 00:10:46;;;;;;;;;22.50;20.00;;;;;21.93;48.17;101667.00;5061469;28;45204;-78
2021/11/09 00:13:12;;;;;;;;;19.75;16.00;;;;;21.91;48.41;101658.19;5043453;28;45306;-78
2021/11/09 00:15:38;;;;;;;;;19.50;17.00;;;;;21.92;48.23;101660.81;5056613;28;45321;-79
2021/11/09 00:18:04;;;;;;;;;21.00;18.50;;;;;21.93;48.23;101667.00;5039535;28;56583;-79
2021/11/09 00:20:30;;;;;;;;;20.75;17.50;;;;;21.93;48.35;101659.91;5026515;28;47239;-79
2021/11/09 00:22:56;;;;;;;;;24.50;19.00;;;;;21.92;48.07;101652.84;5060036;28;45333;-80
2021/11/09 00:25:24;;;;;;;;;21.75;17.50;;;;;21.92;48.14;101649.31;5026682;28;45232;-80
2021/11/09 00:27:50;;;;;;;;;25.00;20.75;;;;;21.91;48.53;101651.09;5043198;28;45365;-79
2021/11/09 00:30:17;;;;;;;;;20.00;19.00;;;;;21.93;48.18;101649.25;5042919;28;45337;-80
2021/11/09 00:32:43;;;;;;;;;22.00;18.75;;;;;21.94;48.53;101651.00;5043047;28;45287;-80
2021/11/09 00:35:09;;;;;;;;;23.50;19.25;;;;;21.94;48.21;101651.00;5026810;28;45382;-80
2021/11/09 00:37:35;;;;;;;;;22.50;18.50;;;;;21.97;48.29;101658.91;5042921;28;45502;-80
2021/11/09 00:40:00;;;;;;;;;24.00;22.00;;;;;21.98;48.15;101657.16;5059541;28;59174;-80
2021/11/09 00:42:26;;;;;;;;;25.25;20.75;;;;;21.98;48.03;101652.69;5059784;28;45331;-80
2021/11/09 00:44:51;;;;;;;;;25.75;21.75;;;;;21.97;48.36;101645.59;5059775;28;45439;-79
2021/11/09 00:47:16;;;;;;;;;18.25;17.00;;;;;22.00;48.17;101636.72;5042724;28;45500;-81
2021/11/09 00:49:42;;;;;;;;;22.75;21.50;;;;;22.00;48.23;101642.91;5059699;28;45374;-77
2021/11/09 00:52:07;;;;;;;;;22.50;19.25;;;;;22.00;48.79;101640.25;5039101;28;45273;-77
2021/11/09 00:54:35;;;;;;;;;23.25;22.50;;;;;21.99;48.66;101654.44;5057132;28;45785;-77
2021/11/09 00:57:00;;;;;;;;;18.00;17.00;;;;;21.99;48.84;101650.91;5059400;28;45256;-77
2021/11/09 00:59:27;;;;;;;;;26.50;22.75;;;;;21.99;48.33;101653.56;5042096;28;49047;-77
2021/11/09 01:01:53;;;;;;;;;23.00;22.00;;;;;21.99;48.23;101650.91;5042680;28;45294;-77
2021/11/09 01:04:19;;;;;;;;;25.75;23.75;;;;;21.98;48.36;101646.50;5042822;28;45435;-76
2021/11/09 01:06:45;;;;;;;;;27.00;23.00;;;;;21.97;48.61;101650.06;5059174;28;45544;-77
2021/11/09 01:09:11;;;;;;;;;23.50;19.25;;;;;21.96;48.20;101659.81;5042465;28;48084;-77
2021/11/09 01:11:36;;;;;;;;;27.75;21.75;;;;;21.97;48.32;101660.69;5060474;28;45513;-77
2021/11/09 01:14:02;;;;;;;;;30.50;25.25;;;;;21.97;48.15;101658.03;5059511;28;45392;-77
2021/11/09 01:16:28;;;;;;;;;24.75;22.50;;;;;21.96;48.52;101659.81;5025001;28;45325;-77
2021/11/09 01:18:54;;;;;;;;;27.75;23.00;;;;;21.94;48.50;101656.31;5042121;28;58737;-77
2021/11/09 01:21:20;;;;;;;;;25.50;23.50;;;;;21.96;48.48;101661.59;5042276;28;45559;-77
2021/11/09 01:23:47;;;;;;;;;27.50;23.00;;;;;21.94;48.18;101656.31;5042701;28;45314;-76
2021/11/09 01:26:13;;;;;;;;;22.50;19.50;;;;;21.93;48.54;101653.72;5042277;28;45194;-76
2021/11/09 01:28:38;;;;;;;;;28.50;23.50;;;;;21.94;48.35;101663.44;5025752;28;48342;-77
2021/11/09 01:31:06;;;;;;;;;26.75;21.25;;;;;21.95;48.49;101659.84;5059231;28;59291;-76
2021/11/09 01:33:32;;;;;;;;;22.75;19.75;;;;;21.95;48.58;101662.50;5059310;28;45359;-77
2021/11/09 01:35:57;;;;;;;;;24.50;21.75;;;;;21.94;48.19;101666.94;5025438;28;45485;-77
2021/11/09 01:38:23;;;;;;;;;25.00;19.75;;;;;21.95;48.32;101659.84;5042297;28;47917;-77
2021/11/09 01:40:48;;;;;;;;;31.50;22.75;;;;;21.96;48.50;101669.56;5058750;28;45214;-76
2021/11/09 01:43:14;;;;;;;;;23.50;22.25;;;;;21.95;48.24;101671.34;5059158;28;45406;-77
2021/11/09 01:45:40;;;;;;;;;22.75;22.50;;;;;21.95;48.14;101668.69;5058518;28;45472;-77
2021/11/09 01:48:05;;;;;;;;;19.50;18.25;;;;;21.95;48.49;101668.69;5041776;28;47323;-76
2021/11/09 01:50:34;;;;;;;;;26.75;22.50;;;;;21.96;48.12;101665.13;5041883;28;46219;-76
2021/11/09 01:53:00;;;;;;;;;24.50;24.50;;;;;21.97;48.30;101673.97;5038972;28;45343;-76
2021/11/09 01:55:26;;;;;;;;;24.50;19.50;;;;;21.97;48.34;101671.31;5039410;28;45470;-76
2021/11/09 01:57:52;;;;;;;;;25.50;23.25;;;;;21.97;48.24;101660.69;5058690;28;45339;-75
2021/11/09 02:00:22;;;;;;;;;24.50;21.25;;;;;21.97;48.11;101666.88;5024607;28;45386;-75
2021/11/09 02:02:49;;;;;;;;;28.00;21.75;;;;;21.97;48.13;101661.56;5042581;28;45224;-75
2021/11/09 02:05:14;;;;;;;;;21.25;21.00;;;;;21.98;48.16;101662.47;5025167;28;45316;-75
2021/11/09 02:07:47;;;;;;;;;24.25;21.25;;;;;21.97;48.25;101661.56;5041910;28;45444;-76
2021/11/09 02:10:13;;;;;;;;;19.50;19.50;;;;;21.97;48.37;101661.56;5042258;28;45446;-75
2021/11/09 02:12:39;;;;;;;;;23.75;23.00;;;;;21.96;47.91;101658.94;5042005;28;45380;-76
2021/11/09 02:15:06;;;;;;;;;24.50;21.75;;;;;21.94;48.45;101661.63;5024868;28;45538;-75
2021/11/09 02:17:31;;;;;;;;;22.25;20.00;;;;;21.95;47.96;101666.03;5058484;28;45547;-75
2021/11/09 02:19:57;;;;;;;;;27.00;25.50;;;;;21.95;48.16;101660.72;5040493;28;67029;-76
2021/11/09 02:22:22;;;;;;;;;29.75;23.25;;;;;21.93;48.24;101662.56;5041841;28;45336;-76
2021/11/09 02:24:48;;;;;;;;;26.00;22.00;;;;;21.94;47.90;101668.75;5041085;28;53600;-76
2021/11/09 02:27:13;;;;;;;;;23.00;20.75;;;;;21.92;47.98;101660.81;5059572;28;45378;-77
2021/11/09 02:29:41;;;;;;;;;23.25;20.75;;;;;21.92;48.51;101667.91;5044237;28;45725;-76
2021/11/09 02:32:07;;;;;;;;;26.75;22.50;;;;;21.93;48.05;101680.28;5063156;28;45307;-76
2021/11/09 02:34:33;;;;;;;;;24.00;21.00;;;;;21.89;48.27;101667.97;5028246;28;45597;-76
2021/11/09 02:36:58;;;;;;;;;21.00;19.00;;;;;21.89;48.18;101674.19;5061754;28;45535;-76
2021/11/09 02:39:24;;;;;;;;;21.00;20.25;;;;;21.89;48.44;101678.59;5061419;28;52941;-77
2021/11/09 02:41:52;;;;;;;;;22.00;20.75;;;;;21.89;48.37;101678.59;5044961;28;45425;-77
2021/11/09 02:44:21;;;;;;;;;26.25;21.50;;;;;21.90;48.18;101685.69;5044804;28;45427;-76
2021/11/09 02:46:51;;;;;;;;;25.00;20.50;;;;;21.89;48.15;101684.81;5057856;28;46607;-77
2021/11/09 02:49:24;;;;;;;;;24.50;23.25;;;;;21.89;48.42;101681.25;5061837;28;45498;-76
2021/11/09 02:51:57;;;;;;;;;22.75;18.75;;;;;21.88;48.19;101679.50;5062822;28;45259;-77
2021/11/09 02:57:03;;;;;;;;;22.75;19.25;;;;;21.89;48.32;101689.22;5056450;28;46185;-77
2021/11/09 03:02:47;;;;;;;;;24.00;21.25;;;;;21.90;48.44;101675.94;5038122;28;45245;-77
2021/11/09 03:07:48;;;;;;;;;24.00;21.25;;;;;21.90;48.24;101681.25;5044484;28;45289;-77
2021/11/09 03:10:34;;;;;;;;;19.25;16.50;;;;;21.91;48.51;101682.97;5045928;28;45518;-77
2021/11/09 03:12:59;;;;;;;;;24.00;21.75;;;;;21.90;48.49;101673.28;5047599;28;45370;-77
2021/11/09 03:15:27;;;;;;;;;22.00;19.75;;;;;21.91;48.62;101666.16;5060955;28;45377;-77
2021/11/09 03:18:00;;;;;;;;;19.25;18.00;;;;;21.91;48.20;101663.50;5060978;28;45667;-77
2021/11/09 03:20:54;;;;;;;;;22.75;20.00;;;;;21.91;48.15;101666.16;5045260;28;45466;-77
2021/11/09 03:45:07;;;;;;;;;22.25;20.50;;;;;21.85;48.42;101674.28;5081783;28;45291;-76
2021/11/09 03:47:37;;;;;;;;;24.50;22.00;;;;;21.83;48.05;101669.00;5029880;28;45305;-77
2021/11/09 03:50:04;;;;;;;;;21.75;20.50;;;;;21.83;48.58;101669.00;5029916;28;46875;-75
2021/11/09 03:52:38;;;;;;;;;21.50;19.25;;;;;21.83;48.37;101679.63;5043795;28;45211;-77
2021/11/09 03:55:05;;;;;;;;;22.75;19.75;;;;;21.82;48.34;101672.56;5056519;28;45315;-77
2021/11/09 04:00:09;;;;;;;;;23.50;21.50;;;;;21.81;48.06;101668.16;5059844;28;45572;-77
2021/11/09 04:03:01;;;;;;;;;9.50;9.00;;;;;21.82;48.20;101677.00;5045458;28;45534;-77
2021/11/09 04:05:23;;;;;;;;;21.50;19.75;;;;;21.80;48.41;101669.03;5046374;28;45273;-82
2021/11/09 04:18:30;;;;;;;;;50.00;40.25;;;;;21.96;50.37;101680.22;5043314;28;45470;-79
2021/11/09 04:24:00;;;;;;;;;76.25;63.75;;;;;22.11;51.71;101681.69;5043995;28;45353;-77
2021/11/09 04:31:55;;;;;;;;;61.25;49.25;;;;;22.25;51.88;101687.56;5059681;28;45479;-76
2021/11/09 04:53:12;;;;;;;;;34.25;29.00;;;;;22.36;50.47;101688.16;5055353;28;45418;-86
2021/11/09 05:02:02;;;;;;;;;24.75;23.75;;;;;22.27;50.05;101697.22;5047703;28;45269;-85
2021/11/09 05:09:14;;;;;;;;;27.00;23.75;;;;;22.21;49.57;101704.47;5045944;28;45433;-86
2021/11/09 05:11:40;;;;;;;;;28.00;26.00;;;;;22.17;49.20;101703.69;5044198;28;45267;-86
2021/11/09 05:14:09;;;;;;;;;24.50;22.25;;;;;22.16;49.60;101699.28;5059062;28;47876;-86
2021/11/09 05:16:35;;;;;;;;;23.25;23.25;;;;;22.15;49.73;101696.63;5042405;28;45420;-86
2021/11/09 05:19:00;;;;;;;;;26.00;24.00;;;;;22.15;49.63;101704.59;5042870;28;45332;-86
2021/11/09 05:21:26;;;;;;;;;23.00;20.00;;;;;22.13;49.31;101704.66;5059009;28;45391;-86
2021/11/09 05:23:51;;;;;;;;;23.25;23.25;;;;;22.12;49.68;101715.31;5042539;28;45356;-86
2021/11/09 05:26:17;;;;;;;;;21.50;20.00;;;;;22.11;49.63;101716.25;5042158;28;45439;-87
2021/11/09 05:28:43;;;;;;;;;26.25;21.50;;;;;22.10;49.61;101714.50;5059274;28;45400;-87
2021/11/09 05:31:08;;;;;;;;;22.75;22.00;;;;;22.09;49.51;101715.41;5058602;28;45474;-86
2021/11/09 05:33:34;;;;;;;;;25.50;23.75;;;;;22.09;49.57;101723.38;5059165;28;45440;-86
2021/11/09 05:36:00;;;;;;;;;25.25;23.75;;;;;22.10;49.30;101728.66;5042123;28;46026;-87
2021/11/09 05:38:34;;;;;;;;;27.25;20.25;;;;;22.08;49.68;101726.97;5059125;28;45264;-86
2021/11/09 05:41:07;;;;;;;;;26.75;21.50;;;;;22.10;49.59;101736.63;5075846;28;45259;-87
2021/11/09 05:43:32;;;;;;;;;25.00;22.25;;;;;22.12;49.29;101736.59;5059708;28;45351;-87
2021/11/09 05:45:58;;;;;;;;;22.25;19.50;;;;;22.12;49.34;101739.25;5023040;28;54971;-87
2021/11/09 05:48:23;;;;;;;;;22.75;19.75;;;;;22.13;49.40;101730.38;5060953;28;45994;-85
2021/11/09 05:50:49;;;;;;;;;20.50;19.00;;;;;22.13;48.78;101730.38;5026058;28;67260;-86
2021/11/09 05:53:15;;;;;;;;;22.00;21.25;;;;;22.14;49.09;101737.44;5060224;28;46124;-83
2021/11/09 05:55:40;;;;;;;;;25.00;21.00;;;;;22.13;49.15;101739.22;5025115;28;45649;-78
2021/11/09 05:58:06;;;;;;;;;21.50;20.50;;;;;22.13;49.16;101736.56;5042320;28;45241;-79
2021/11/09 06:00:31;;;;;;;;;20.50;19.00;;;;;22.14;49.22;101742.75;5041385;28;45515;-77
2021/11/09 06:02:57;;;;;;;;;20.25;20.00;;;;;22.14;49.27;101742.75;5033121;28;47979;-79
2021/11/09 06:05:22;;;;;;;;;19.50;18.25;;;;;22.14;50.06;101750.72;5062144;28;61345;-83
2021/11/09 06:07:48;;;;;;;;;19.50;19.50;;;;;22.09;49.86;101742.00;5062550;28;45268;-76
2021/11/09 06:10:16;;;;;;;;;19.25;19.25;;;;;22.20;49.96;101750.59;5062752;28;56646;-79
2021/11/09 06:12:41;;;;;;;;;20.75;18.50;;;;;22.25;50.07;101746.06;5045473;28;47155;-77
2021/11/09 06:15:07;;;;;;;;;24.00;21.00;;;;;22.32;49.73;101755.63;5045790;28;45404;-80
2021/11/09 06:17:33;;;;;;;;;26.00;23.25;;;;;22.35;49.35;101760.88;5064581;28;45452;-75
2021/11/09 06:19:58;;;;;;;;;20.50;19.25;;;;;22.38;49.89;101774.09;5038964;28;45384;-77
2021/11/09 06:22:24;;;;;;;;;22.75;20.00;;;;;22.39;50.01;101767.00;5065391;28;47289;-77
2021/11/09 06:24:50;;;;;;;;;25.75;22.00;;;;;22.39;49.69;101769.66;5062956;28;45362;-81
2021/11/09 06:27:18;;;;;;;;;25.75;22.75;;;;;22.39;49.52;101767.00;5028915;28;45278;-83
2021/11/09 06:29:43;;;;;;;;;23.25;20.50;;;;;22.37;49.66;101761.72;5047776;28;45269;-76
2021/11/09 06:32:09;;;;;;;;;21.50;19.25;;;;;22.37;49.79;101764.38;5044380;28;57237;-77
2021/11/09 06:34:34;;;;;;;;;28.75;24.00;;;;;22.36;50.10;101773.28;5061018;28;58815;-78
2021/11/09 06:37:00;;;;;;;;;24.75;20.50;;;;;22.37;49.61;101766.16;5063282;28;45361;-76
2021/11/09 06:39:27;;;;;;;;;22.00;19.25;;;;;22.34;49.68;101777.75;5045287;28;47396;-75
2021/11/09 06:41:53;;;;;;;;;25.50;21.75;;;;;22.35;49.39;101783.94;5026550;28;47174;-75
2021/11/09 06:44:18;;;;;;;;;25.50;21.25;;;;;22.33;49.76;101781.34;5043574;28;45348;-76
2021/11/09 06:46:43;;;;;;;;;26.00;21.00;;;;;22.32;49.60;101782.22;5043827;28;45395;-76
2021/11/09 06:49:09;;;;;;;;;25.50;21.00;;;;;22.30;49.78;101786.69;5041550;28;51965;-76
2021/11/09 06:51:35;;;;;;;;;21.75;18.75;;;;;22.29;49.75;101790.28;5024279;28;48141;-76
2021/11/09 06:54:01;;;;;;;;;21.50;19.00;;;;;22.30;49.13;101792.03;5027153;28;46182;-76
2021/11/09 06:56:26;;;;;;;;;24.50;23.25;;;;;22.30;49.40;101786.69;5035384;28;46300;-76
2021/11/09 06:58:52;;;;;;;;;22.75;20.00;;;;;22.29;48.77;101790.28;5043970;28;45401;-76
2021/11/09 07:01:18;;;;;;;;;20.75;19.75;;;;;22.30;48.80;101789.34;5062254;28;47114;-74
2021/11/09 07:03:44;;;;;;;;;26.00;23.25;;;;;22.29;48.74;101788.47;5028187;28;45316;-76
2021/11/09 07:06:10;;;;;;;;;29.75;22.00;;;;;22.28;49.00;101791.19;5044525;28;45273;-76
2021/11/09 07:08:35;;;;;;;;;22.00;20.50;;;;;22.26;49.04;101788.56;5044709;28;45340;-74
2021/11/09 07:11:03;;;;;;;;;24.00;22.75;;;;;22.27;48.45;101794.75;5044430;28;49432;-76
2021/11/09 07:13:28;;;;;;;;;26.75;20.00;;;;;22.27;48.58;101792.09;5027403;28;45337;-76
2021/11/09 07:15:53;;;;;;;;;15.75;14.00;;;;;22.26;48.52;101795.66;5062414;28;45317;-76
2021/11/09 07:18:19;;;;;;;;;25.25;21.00;;;;;22.25;48.12;101802.78;5044088;28;45602;-77
2021/11/09 07:20:44;;;;;;;;;24.25;22.00;;;;;22.25;48.06;101800.13;5044170;28;45302;-76
2021/11/09 07:23:10;;;;;;;;;21.00;17.50;;;;;22.24;48.06;101802.78;5062135;28;45409;-76
2021/11/09 07:25:35;;;;;;;;;15.00;10.00;;;;;22.22;48.16;101809.94;5044092;28;45368;-77
2021/11/09 07:28:01;;;;;;;;;24.25;18.75;;;;;22.22;48.10;101809.94;5060900;28;45197;-76
2021/11/09 07:30:31;;;;;;;;;26.25;22.00;;;;;22.20;48.10;101815.28;5056645;28;60414;-75
2021/11/09 07:32:56;;;;;;;;;33.25;24.50;;;;;22.20;48.47;101814.41;5042936;28;45528;-75
2021/11/09 07:35:21;;;;;;;;;24.00;23.25;;;;;22.20;48.38;101811.75;5044174;28;45439;-75
2021/11/09 07:37:47;;;;;;;;;25.25;21.75;;;;;22.18;48.48;101806.47;5060832;28;45429;-75
2021/11/09 07:40:13;;;;;;;;;31.00;27.75;;;;;22.13;47.38;101820.75;5032488;28;49509;-77
2021/11/09 07:42:47;;;;;;;;;35.25;30.75;;;;;21.99;46.46;101819.25;5043921;28;45403;-84
2021/11/09 07:45:17;;;;;;;;;36.75;31.50;;;;;21.87;45.83;101824.81;5044026;28;45454;-74
2021/11/09 07:47:42;;;;;;;;;38.25;32.25;;;;;21.72;45.23;101828.66;5059823;28;45681;-75
2021/11/09 07:50:08;;;;;;;;;33.75;31.25;;;;;21.59;45.35;101824.47;5026010;28;47038;-75
2021/11/09 07:52:34;;;;;;;;;34.75;30.00;;;;;21.53;44.91;101831.69;5023503;28;45454;-77
2021/11/09 07:55:03;;;;;;;;;37.50;31.25;;;;;21.45;44.76;101834.47;5043248;28;46513;-75
2021/11/09 07:57:34;;;;;;;;;32.00;28.00;;;;;21.36;44.83;101832.88;5043556;28;45466;-75
2021/11/09 08:00:06;;;;;;;;;38.75;30.00;;;;;21.28;44.47;101826.81;5040345;28;45646;-75
2021/11/09 08:02:44;;;;;;;;;33.75;29.25;;;;;21.22;43.72;101834.00;5060729;28;45202;-75
2021/11/09 08:05:11;;;;;;;;;33.50;27.50;;;;;21.11;43.66;101826.19;5059846;28;45561;-75
2021/11/09 08:07:49;;;;;;;;;32.00;29.00;;;;;21.02;43.07;101836.97;5043517;28;45537;-74
2021/11/09 08:10:14;;;;;;;;;33.00;30.75;;;;;20.93;43.09;101831.81;5030106;28;47497;-75
2021/11/09 08:12:40;;;;;;;;;33.00;25.50;;;;;20.89;43.07;101838.97;5038654;28;58397;-74
2021/11/09 08:15:05;;;;;;;;;29.25;27.00;;;;;20.85;42.96;101839.94;5042649;28;45285;-74
2021/11/09 08:17:31;;;;;;;;;28.50;26.75;;;;;20.81;42.71;101839.06;5027065;28;45333;-73
2021/11/09 08:19:56;;;;;;;;;26.00;22.25;;;;;20.75;42.56;101833.84;5026513;28;46813;-73
2021/11/09 08:22:22;;;;;;;;;26.25;24.25;;;;;20.76;42.92;101840.03;5059973;28;45574;-73
2021/11/09 08:24:48;;;;;;;;;32.25;27.25;;;;;20.76;42.77;101848.91;5026673;28;45377;-74
2021/11/09 08:27:15;;;;;;;;;31.25;27.25;;;;;20.75;42.20;101836.50;5042755;28;45651;-74
2021/11/09 08:29:48;;;;;;;;;26.75;26.50;;;;;20.80;42.31;101850.59;5027617;28;47399;-74
2021/11/09 08:32:16;;;;;;;;;28.75;27.00;;;;;20.81;42.04;101851.47;5031907;28;45661;-73
2021/11/09 08:34:42;;;;;;;;;37.00;30.50;;;;;20.82;42.23;101846.13;5048991;28;45364;-74
2021/11/09 08:37:07;;;;;;;;;35.00;28.75;;;;;20.85;41.84;101850.53;5025824;28;45510;-73
2021/11/09 08:39:38;;;;;;;;;34.00;30.75;;;;;20.86;42.22;101842.56;5033223;28;48100;-74
2021/11/09 08:44:37;;;;;;;;;30.00;28.25;;;;;20.88;41.94;101845.19;5048329;28;45426;-75
2021/11/09 08:47:03;;;;;;;;;32.25;29.00;;;;;20.87;41.91;101849.59;5043564;28;45362;-73
2021/11/09 08:49:30;;;;;;;;;31.75;27.00;;;;;20.87;41.80;101844.31;5026115;28;47238;-75
2021/11/09 08:51:56;;;;;;;;;35.25;30.25;;;;;20.86;41.25;101842.56;5040390;28;45371;-74
2021/11/09 08:54:25;;;;;;;;;37.00;32.75;;;;;20.86;41.42;101846.97;5055289;28;45435;-76
2021/11/09 09:04:51;;;;;;;;;32.25;25.50;;;;;20.88;40.99;101846.06;5056273;28;45442;-73
2021/11/09 09:07:16;;;;;;;;;29.00;27.75;;;;;20.88;41.08;101856.66;5055585;28;45820;-74
2021/11/09 09:09:42;;;;;;;;;31.00;26.75;;;;;20.89;40.68;101846.94;5056056;28;54196;-73
2021/11/09 09:12:07;;;;;;;;;32.50;29.00;;;;;20.88;40.62;101843.41;5058817;28;45321;-73
2021/11/09 09:14:33;;;;;;;;;39.00;30.50;;;;;20.89;40.71;101838.97;5024932;28;45346;-74
2021/11/09 09:17:00;;;;;;;;;32.00;30.75;;;;;20.91;40.72;101842.47;5058908;28;45511;-71
2021/11/09 09:19:29;;;;;;;;;29.50;27.75;;;;;20.89;40.58;101834.53;5056316;28;46670;-73
2021/11/09 09:22:08;;;;;;;;;34.25;31.75;;;;;20.93;40.75;101837.13;5059030;28;45552;-73
2021/11/09 09:54:27;;;;;;;;;27.25;24.25;;;;;21.19;39.83;101837.56;5037674;28;45352;-76
2021/11/09 09:56:53;;;;;;;;;38.25;29.25;;;;;21.20;39.89;101836.69;5056353;28;45434;-75
2021/11/09 09:59:23;;;;;;;;;26.50;21.50;;;;;21.18;39.62;101835.81;5041223;28;45544;-75
2021/11/09 10:02:06;;;;;;;;;33.75;29.75;;;;;21.18;39.39;101831.38;5040667;28;47183;-75
2021/11/09 10:04:33;;;;;;;;;33.25;28.50;;;;;21.19;39.43;101829.59;5056217;28;45768;-74
2021/11/09 10:06:59;;;;;;;;;29.75;27.00;;;;;21.17;39.80;101820.78;5025337;28;45241;-79
2021/11/09 10:09:44;;;;;;;;;34.00;28.50;;;;;21.22;39.75;101823.38;5041113;28;45546;-76
2021/11/09 10:12:33;;;;;;;;;36.25;29.75;;;;;21.23;39.79;101833.09;5060406;28;47256;-76
2021/11/09 10:15:01;;;;;;;;;30.75;29.00;;;;;21.22;39.77;101818.94;5040178;28;45404;-76
2021/11/09 10:17:27;;;;;;;;;25.75;22.50;;;;;21.26;40.17;101825.06;5043055;28;45325;-75
2021/11/09 10:19:53;;;;;;;;;30.75;27.50;;;;;21.27;39.52;101822.41;5059617;28;45228;-76
2021/11/09 10:22:25;;;;;;;;;32.00;27.50;;;;;21.29;39.70;101822.41;5046915;28;45560;-75
2021/11/09 10:25:00;;;;;;;;;24.25;22.75;;;;;21.30;39.47;101819.72;5057671;28;45280;-75
2021/11/09 10:27:27;;;;;;;;;19.50;19.00;;;;;21.30;39.14;101825.03;5058830;28;45294;-75
2021/11/09 10:29:55;;;;;;;;;22.25;19.75;;;;;21.27;39.53;101822.41;5040267;28;45498;-74
2021/11/09 10:32:27;;;;;;;;;21.50;19.50;;;;;21.24;38.96;101817.13;5041062;28;45554;-75
2021/11/09 10:34:54;;;;;;;;;20.00;18.75;;;;;21.23;39.00;101806.53;5055633;28;45169;-76
2021/11/09 10:37:24;;;;;;;;;20.00;16.25;;;;;21.22;39.01;101804.81;5057388;28;45526;-74
2021/11/09 10:39:50;;;;;;;;;18.50;17.00;;;;;21.19;38.78;101813.66;5025109;28;45246;-75
2021/11/09 10:42:17;;;;;;;;;17.25;16.50;;;;;21.18;38.56;101806.59;5057805;28;46013;-75
2021/11/09 10:45:08;;;;;;;;;24.00;17.50;;;;;21.16;39.18;101809.31;5057900;28;45428;-71
2021/11/09 10:47:34;;;;;;;;;18.75;17.25;;;;;21.16;38.86;101811.97;5041755;28;45551;-74
2021/11/09 10:50:05;;;;;;;;;24.00;17.00;;;;;21.15;39.17;101809.34;5050165;28;45156;-80
2021/11/09 10:52:34;;;;;;;;;19.00;17.75;;;;;21.17;39.05;101816.34;5068533;28;45379;-80
2021/11/09 10:55:08;;;;;;;;;21.25;19.25;;;;;21.21;39.96;101817.19;5045896;28;45356;-75
2021/11/09 10:57:41;;;;;;;;;18.25;15.50;;;;;21.26;39.59;101804.69;5038083;28;44733;-76
2021/11/09 11:05:20;;;;;;;;;23.00;17.75;;;;;21.39;40.44;101798.31;5048010;28;45335;-82
2021/11/09 11:07:54;;;;;;;;;22.75;19.75;;;;;21.47;40.07;101802.59;5060194;28;45272;-80
2021/11/09 11:10:30;;;;;;;;;28.00;26.25;;;;;21.57;40.50;101797.06;5060705;28;45482;-88
2021/11/09 11:13:18;;;;;;;;;41.25;35.75;;;;;21.67;40.04;101787.13;5044237;28;45742;-84
2021/11/09 11:16:00;;;;;;;;;288.00;257.00;;;;;21.85;39.99;101789.41;5040463;28;45303;-79
2021/11/09 11:18:31;;;;;;;;;82.00;72.25;;;;;21.97;39.20;101793.59;5062839;28;45351;-81
2021/11/09 11:20:57;;;;;;;;;73.00;56.50;;;;;22.01;39.44;101782.88;5026207;28;45441;-74
2021/11/09 11:23:23;;;;;;;;;68.75;53.00;;;;;22.02;39.47;101784.63;5061982;28;45347;-74
2021/11/09 11:25:48;;;;;;;;;63.75;49.50;;;;;22.02;39.19;101774.00;5060469;28;45436;-74
2021/11/09 11:28:14;;;;;;;;;57.25;45.75;;;;;22.02;38.72;101776.66;5060676;28;45497;-74
2021/11/09 11:30:39;;;;;;;;;51.75;41.25;;;;;22.00;39.13;101773.16;5060351;28;45510;-74
2021/11/09 11:33:07;;;;;;;;;49.50;40.50;;;;;21.97;39.08;101761.69;5062552;28;59104;-73
2021/11/09 11:35:32;;;;;;;;;50.00;39.25;;;;;21.93;38.65;101763.56;5027081;28;45619;-74
2021/11/09 11:37:58;;;;;;;;;45.75;35.25;;;;;21.92;39.34;101763.59;5043263;28;50630;-74
2021/11/09 11:40:23;;;;;;;;;41.75;33.75;;;;;21.87;39.48;101758.38;5041193;28;45436;-74
2021/11/09 11:42:52;;;;;;;;;41.50;33.25;;;;;21.84;40.59;101758.44;5026990;28;46593;-75
2021/11/09 11:45:17;;;;;;;;;37.50;31.25;;;;;21.75;40.14;101737.38;5040909;28;57378;-76
2021/11/09 11:48:05;;;;;;;;;30.00;27.50;;;;;21.73;39.85;101745.38;5059712;28;45387;-76
2021/11/09 11:50:43;;;;;;;;;34.75;29.00;;;;;21.70;39.51;101742.78;5055552;28;45709;-76
2021/11/09 11:53:12;;;;;;;;;28.25;23.25;;;;;21.67;39.12;101745.50;5043154;28;45450;-75
2021/11/09 11:55:38;;;;;;;;;23.75;21.00;;;;;21.64;39.14;101736.72;5026435;28;45678;-73
2021/11/09 11:58:13;;;;;;;;;24.00;20.50;;;;;21.61;39.16;101736.78;5060444;28;45399;-76
2021/11/09 12:00:51;;;;;;;;;21.00;18.50;;;;;21.61;38.94;101734.13;5041904;28;46124;-75
2021/11/09 12:03:23;;;;;;;;;19.75;17.50;;;;;21.58;38.88;101731.53;5043633;28;45479;-75
2021/11/09 12:05:50;;;;;;;;;16.75;16.25;;;;;21.56;38.28;101738.66;5060111;28;45348;-73
2021/11/09 12:08:16;;;;;;;;;18.50;18.00;;;;;21.54;38.43;101732.50;5059542;28;45397;-74
2021/11/09 12:10:43;;;;;;;;;17.25;15.50;;;;;21.50;38.81;101725.50;5059240;28;45427;-73
2021/11/09 12:13:29;;;;;;;;;18.50;14.00;;;;;21.52;37.94;101724.56;5059341;28;45731;-75
2021/11/09 12:16:03;;;;;;;;;15.25;11.00;;;;;21.52;38.08;101721.91;5041741;28;45585;-73
2021/11/09 12:18:28;;;;;;;;;11.75;11.25;;;;;21.52;37.88;101721.91;5043766;28;45483;-75
2021/11/09 12:21:24;;;;;;;;;9.00;9.00;;;;;21.52;37.40;101719.25;5059937;28;45467;-75
2021/11/09 12:24:15;;;;;;;;;14.75;11.25;;;;;21.53;37.25;101701.53;5043828;28;46505;-73
2021/11/09 12:26:57;;;;;;;;;18.75;12.75;;;;;21.50;37.45;101698.94;5078451;27;45390;-74
2021/11/09 12:29:35;;;;;;;;;20.50;10.00;;;;;21.52;37.34;101699.78;5042394;28;45285;-73
2021/11/09 12:32:20;;;;;;;;;16.00;10.00;;;;;21.53;37.05;101701.53;5060300;28;45571;-73
2021/11/09 12:35:01;;;;;;;;;17.25;11.25;;;;;21.52;37.38;101687.38;5041636;28;47423;-72
2021/11/09 12:37:26;;;;;;;;;12.75;12.50;;;;;21.53;37.18;101696.22;5056937;28;45455;-71
2021/11/09 12:40:30;;;;;;;;;12.50;11.50;;;;;21.52;37.14;101695.34;5021852;28;61292;-74
2021/11/09 12:43:29;;;;;;;;;11.75;9.75;;;;;21.50;36.92;101690.97;5048219;28;45426;-73
2021/11/09 12:46:11;;;;;;;;;14.25;13.50;;;;;21.49;36.99;101691.88;5042098;28;47213;-73
2021/11/09 12:48:38;;;;;;;;;15.25;9.00;;;;;21.45;37.10;101694.59;5060101;28;45283;-74
2021/11/09 12:51:05;;;;;;;;;13.25;11.25;;;;;21.43;37.37;101693.75;5059337;28;45465;-74
2021/11/09 12:53:31;;;;;;;;;14.50;9.25;;;;;21.39;36.85;101686.75;5058773;28;45449;-74
2021/11/09 12:56:03;;;;;;;;;12.50;9.50;;;;;21.41;37.06;101684.94;5059297;28;48501;-73
2021/11/09 12:58:33;;;;;;;;;10.75;10.75;;;;;21.37;37.16;101685.94;5059110;28;45285;-72
2021/11/09 13:04:01;;;;;;;;;10.00;9.00;;;;;21.33;36.86;101683.34;5042909;28;45246;-72
2021/11/09 13:09:20;;;;;;;;;7.25;6.25;;;;;21.28;36.45;101663.97;5059059;28;45478;-72
2021/11/09 13:11:50;;;;;;;;;11.00;9.75;;;;;21.30;36.65;101676.34;5025297;28;45389;-72
2021/11/09 13:14:16;;;;;;;;;9.00;8.00;;;;;21.28;36.51;101674.59;5042468;28;45419;-71
2021/11/09 13:16:49;;;;;;;;;9.00;8.25;;;;;21.27;36.18;101678.16;5042071;28;45272;-72
2021/11/09 13:19:16;;;;;;;;;9.00;8.75;;;;;21.25;36.32;101686.13;5055459;28;45291;-73
2021/11/09 13:21:41;;;;;;;;;7.25;7.00;;;;;21.24;35.91;101676.41;5041917;28;45478;-72
2021/11/09 13:24:08;;;;;;;;;8.50;7.25;;;;;21.22;36.17;101675.56;5059191;28;45347;-72
2021/11/09 13:26:33;;;;;;;;;8.25;7.00;;;;;21.21;36.05;101670.31;5042207;28;45514;-73
2021/11/09 13:29:06;;;;;;;;;8.25;8.25;;;;;21.20;35.81;101666.78;5025015;28;54767;-75